createdAt,value
2018-10-02T00:01:00.328Z,88.96
2018-10-02T00:02:05.113Z,89.01
2018-10-02T00:03:09.508Z,88.80
2018-10-02T00:04:14.836Z,89.09
2018-10-02T00:05:19.406Z,89.21
2018-10-02T00:06:23.881Z,89.40
2018-10-02T00:07:31.600Z,89.18
2018-10-02T00:08:37.091Z,89.31
2018-10-02T00:09:41.702Z,89.01
2018-10-02T00:10:51.426Z,89.38
2018-10-02T00:12:01.244Z,89.36
2018-10-02T00:13:11.164Z,89.23
2018-10-02T00:14:20.640Z,89.32
2018-10-02T00:15:26.568Z,89.43
2018-10-02T00:16:31.023Z,89.26
2018-10-02T00:17:35.519Z,89.44
2018-10-02T00:18:40.320Z,89.35
2018-10-02T00:19:46.283Z,89.11
2018-10-02T00:20:50.771Z,89.28
2018-10-02T00:21:55.176Z,89.43
2018-10-02T00:22:59.684Z,89.54
2018-10-02T00:24:04.179Z,89.49
2018-10-02T00:25:09.133Z,89.30
2018-10-02T00:26:13.620Z,89.56
2018-10-02T00:27:18.015Z,89.87
2018-10-02T00:28:22.601Z,89.61
2018-10-02T00:29:27.874Z,89.86
2018-10-02T00:30:32.484Z,89.75
2018-10-02T00:31:37.256Z,90.08
2018-10-02T00:32:41.700Z,89.79
2018-10-02T00:33:46.107Z,89.71
2018-10-02T00:34:50.571Z,90.17
2018-10-02T00:35:55.028Z,89.89
2018-10-02T00:36:59.826Z,90.00
2018-10-02T00:38:04.891Z,90.09
2018-10-02T00:39:09.986Z,90.24
2018-10-02T00:40:14.900Z,89.95
2018-10-02T00:41:19.560Z,90.34
2018-10-02T00:42:24.435Z,89.80
2018-10-02T00:43:29.054Z,89.83
2018-10-02T00:44:33.877Z,90.04
2018-10-02T00:45:38.417Z,90.05
2018-10-02T00:46:43.709Z,89.76
2018-10-02T00:47:48.381Z,89.95
2018-10-02T00:48:53.636Z,89.97
2018-10-02T00:49:59.809Z,89.93
2018-10-02T00:51:05.415Z,90.00
2018-10-02T00:52:10.621Z,89.87
2018-10-02T00:53:15.342Z,89.71
2018-10-02T00:54:20.187Z,89.90
2018-10-02T00:55:24.644Z,89.78
2018-10-02T00:56:29.581Z,89.94
2018-10-02T00:57:35.474Z,89.83
2018-10-02T00:58:40.140Z,89.80
2018-10-02T00:59:44.667Z,89.93
2018-10-02T01:00:49.470Z,90.01
2018-10-02T01:01:53.899Z,90.35
2018-10-02T01:02:58.478Z,90.08
2018-10-02T01:04:03.415Z,90.29
2018-10-02T01:05:07.915Z,90.16
2018-10-02T01:06:12.461Z,90.35
2018-10-02T01:07:16.955Z,90.47
2018-10-02T01:08:21.476Z,90.32
2018-10-02T01:09:26.464Z,90.41
2018-10-02T01:10:31.228Z,90.43
2018-10-02T01:11:37.782Z,90.50
2018-10-02T01:12:42.160Z,90.44
2018-10-02T01:13:47.100Z,90.51
2018-10-02T01:14:51.543Z,90.71
2018-10-02T01:15:56.079Z,90.61
2018-10-02T01:17:00.935Z,90.84
2018-10-02T01:18:05.730Z,90.69
2018-10-02T01:19:10.364Z,91.30
2018-10-02T01:20:14.958Z,91.32
2018-10-02T01:21:19.819Z,91.55
2018-10-02T01:22:24.570Z,91.33
2018-10-02T01:23:29.762Z,91.44
2018-10-02T01:24:34.217Z,91.29
2018-10-02T01:25:39.157Z,91.46
2018-10-02T01:26:44.136Z,91.38
2018-10-02T01:27:48.541Z,91.47
2018-10-02T01:28:53.037Z,91.67
2018-10-02T01:29:57.797Z,91.64
2018-10-02T01:31:02.279Z,91.98
2018-10-02T01:32:06.673Z,92.09
2018-10-02T01:33:11.464Z,91.84
2018-10-02T01:34:17.101Z,91.90
2018-10-02T01:35:21.964Z,91.62
2018-10-02T01:36:26.788Z,92.01
2018-10-02T01:37:31.200Z,91.95
2018-10-02T01:38:37.343Z,91.90
2018-10-02T01:39:42.108Z,92.16
2018-10-02T01:40:46.448Z,91.94
2018-10-02T01:41:50.801Z,92.17
2018-10-02T01:42:55.553Z,92.10
2018-10-02T01:44:01.193Z,91.97
2018-10-02T01:45:05.744Z,92.16
2018-10-02T01:46:10.113Z,92.14
2018-10-02T01:47:14.468Z,92.09
2018-10-02T01:48:18.897Z,92.25
2018-10-02T01:49:23.592Z,92.21
2018-10-02T01:50:28.015Z,92.23
2018-10-02T01:51:32.354Z,92.52
2018-10-02T01:52:36.667Z,92.79
2018-10-02T01:53:40.949Z,92.64
2018-10-02T01:54:45.585Z,92.55
2018-10-02T01:55:50.126Z,92.83
2018-10-02T01:56:54.524Z,92.54
2018-10-02T01:57:59.892Z,92.60
2018-10-02T01:59:04.206Z,92.65
2018-10-02T02:00:08.678Z,92.75
2018-10-02T02:01:13.535Z,92.66
2018-10-02T02:02:18.931Z,92.68
2018-10-02T02:03:23.396Z,92.49
2018-10-02T02:04:27.738Z,92.80
2018-10-02T02:05:32.061Z,92.79
2018-10-02T02:06:36.372Z,92.89
2018-10-02T02:07:40.989Z,92.74
2018-10-02T02:08:45.679Z,92.71
2018-10-02T02:09:49.987Z,92.95
2018-10-02T02:10:54.326Z,92.89
2018-10-02T02:11:58.620Z,92.84
2018-10-02T02:13:02.949Z,92.81
2018-10-02T02:14:07.570Z,92.90
2018-10-02T02:15:11.890Z,92.92
2018-10-02T02:16:16.307Z,93.07
2018-10-02T02:17:20.608Z,93.16
2018-10-02T02:18:24.990Z,93.48
2018-10-02T02:19:29.344Z,93.33
2018-10-02T02:20:34.079Z,93.34
2018-10-02T02:21:38.444Z,93.41
2018-10-02T02:22:42.752Z,93.29
2018-10-02T02:23:47.051Z,93.21
2018-10-02T02:24:51.385Z,93.38
2018-10-02T02:25:55.750Z,93.39
2018-10-02T02:27:00.618Z,93.58
2018-10-02T02:28:06.047Z,93.85
2018-10-02T02:29:10.432Z,93.50
2018-10-02T02:30:14.752Z,93.50
2018-10-02T02:31:20.319Z,93.63
2018-10-02T02:32:24.660Z,93.53
2018-10-02T02:33:30.138Z,93.68
2018-10-02T02:34:34.503Z,93.74
2018-10-02T02:35:38.825Z,93.74
2018-10-02T02:36:43.118Z,93.60
2018-10-02T02:37:47.440Z,93.78
2018-10-02T02:38:51.728Z,93.80
2018-10-02T02:39:56.689Z,93.74
2018-10-02T02:41:01.082Z,93.77
2018-10-02T02:42:05.423Z,94.05
2018-10-02T02:43:09.760Z,93.93
2018-10-02T02:44:14.082Z,94.05
2018-10-02T02:45:18.385Z,93.94
2018-10-02T02:46:23.843Z,94.13
2018-10-02T02:47:37.315Z,94.23
2018-10-02T02:48:46.767Z,94.76
2018-10-02T02:49:56.254Z,94.61
2018-10-02T02:51:06.373Z,94.82
2018-10-02T02:52:14.045Z,94.87
2018-10-02T02:53:21.327Z,95.16
2018-10-02T02:55:41.962Z,95.61
2018-10-02T02:56:46.257Z,95.65
2018-10-02T02:57:50.539Z,95.75
2018-10-02T02:58:55.277Z,96.00
2018-10-02T03:00:00.012Z,96.07
2018-10-02T03:01:04.334Z,96.35
2018-10-02T03:02:08.652Z,96.42
2018-10-02T03:03:12.946Z,96.51
2018-10-02T03:04:17.293Z,96.55
2018-10-02T03:05:21.635Z,96.71
2018-10-02T03:06:26.403Z,96.91
2018-10-02T03:07:30.721Z,96.88
2018-10-02T03:08:35.033Z,96.94
2018-10-02T03:09:39.339Z,97.02
2018-10-02T03:10:43.647Z,97.01
2018-10-02T03:11:47.976Z,97.22
2018-10-02T03:12:52.588Z,97.49
2018-10-02T03:13:56.918Z,97.42
2018-10-02T03:15:01.263Z,97.51
2018-10-02T03:16:05.662Z,97.60
2018-10-02T03:17:10.051Z,97.76
2018-10-02T03:18:14.406Z,97.42
2018-10-02T03:19:19.115Z,97.77
2018-10-02T03:20:23.424Z,97.44
2018-10-02T03:21:27.729Z,97.88
2018-10-02T03:22:32.046Z,97.57
2018-10-02T03:23:36.582Z,97.73
2018-10-02T03:24:40.956Z,97.41
2018-10-02T03:25:45.722Z,97.72
2018-10-02T03:26:50.041Z,97.74
2018-10-02T03:27:54.356Z,97.67
2018-10-02T03:28:58.719Z,97.55
2018-10-02T03:30:03.205Z,97.53
2018-10-02T03:31:07.683Z,97.25
2018-10-02T03:32:12.510Z,97.74
2018-10-02T03:33:16.892Z,97.63
2018-10-02T03:34:21.246Z,97.69
2018-10-02T03:35:26.202Z,97.36
2018-10-02T03:36:31.843Z,97.48
2018-10-02T03:37:36.167Z,97.43
2018-10-02T03:38:40.939Z,97.63
2018-10-02T03:39:45.305Z,97.42
2018-10-02T03:40:49.661Z,97.45
2018-10-02T03:41:54.011Z,97.58
2018-10-02T03:42:58.396Z,97.79
2018-10-02T03:44:02.759Z,97.48
2018-10-02T03:45:07.605Z,97.48
2018-10-02T03:46:11.961Z,97.69
2018-10-02T03:47:16.274Z,97.86
2018-10-02T03:48:20.610Z,97.76
2018-10-02T03:49:24.974Z,97.76
2018-10-02T03:50:29.418Z,97.92
2018-10-02T03:51:34.220Z,97.86
2018-10-02T03:52:38.699Z,97.66
2018-10-02T03:53:43.145Z,97.96
2018-10-02T03:54:48.099Z,98.09
2018-10-02T03:55:52.428Z,98.06
2018-10-02T03:56:56.969Z,98.37
2018-10-02T03:58:02.580Z,98.23
2018-10-02T03:59:06.991Z,98.22
2018-10-02T04:00:11.395Z,98.24
2018-10-02T04:01:15.703Z,98.37
2018-10-02T04:02:20.817Z,98.35
2018-10-02T04:03:25.210Z,98.54
2018-10-02T04:04:30.052Z,98.44
2018-10-02T04:05:34.325Z,98.45
2018-10-02T04:06:38.657Z,98.45
2018-10-02T04:07:43.301Z,98.62
2018-10-02T04:08:48.783Z,98.49
2018-10-02T04:09:53.414Z,98.75
2018-10-02T04:10:58.089Z,98.37
2018-10-02T04:12:02.397Z,98.33
2018-10-02T04:13:06.833Z,98.75
2018-10-02T04:14:11.127Z,98.71
2018-10-02T04:15:15.523Z,98.87
2018-10-02T04:16:20.557Z,98.61
2018-10-02T04:17:26.255Z,98.81
2018-10-02T04:18:31.760Z,98.50
2018-10-02T04:19:37.106Z,98.48
2018-10-02T04:20:42.056Z,98.48
2018-10-02T04:21:46.469Z,98.67
2018-10-02T04:22:50.806Z,98.60
2018-10-02T04:23:55.529Z,98.76
2018-10-02T04:24:59.818Z,98.60
2018-10-02T04:26:04.245Z,98.63
2018-10-02T04:27:08.558Z,98.43
2018-10-02T04:28:13.653Z,98.65
2018-10-02T04:29:17.949Z,98.48
2018-10-02T04:30:24.128Z,98.31
2018-10-02T04:31:29.900Z,98.67
2018-10-02T04:32:34.266Z,98.71
2018-10-02T04:33:39.016Z,98.48
2018-10-02T04:34:43.392Z,98.67
2018-10-02T04:35:47.769Z,98.66
2018-10-02T04:37:01.309Z,98.51
2018-10-02T04:38:05.624Z,98.44
2018-10-02T04:39:09.971Z,98.39
2018-10-02T04:40:14.453Z,98.22
2018-10-02T04:41:18.771Z,98.49
2018-10-02T04:42:25.541Z,98.38
2018-10-02T04:43:33.309Z,98.35
2018-10-02T04:44:38.308Z,98.51
2018-10-02T04:45:44.194Z,98.38
2018-10-02T04:46:48.501Z,98.49
2018-10-02T04:47:53.979Z,98.48
2018-10-02T04:49:00.916Z,98.58
2018-10-02T04:50:05.282Z,98.30
2018-10-02T04:51:10.414Z,98.47
2018-10-02T04:52:14.778Z,98.59
2018-10-02T04:53:20.312Z,98.45
2018-10-02T04:54:24.701Z,98.28
2018-10-02T04:55:29.522Z,98.44
2018-10-02T04:56:33.961Z,98.34
2018-10-02T04:57:38.343Z,98.28
2018-10-02T04:58:43.558Z,98.41
2018-10-02T04:59:48.184Z,98.43
2018-10-02T05:00:52.911Z,98.32
2018-10-02T05:01:57.322Z,98.35
2018-10-02T05:03:01.663Z,98.08
2018-10-02T05:04:06.370Z,98.25
2018-10-02T05:05:11.457Z,97.92
2018-10-02T05:06:16.479Z,98.30
2018-10-02T05:07:22.233Z,98.23
2018-10-02T05:08:26.891Z,98.19
2018-10-02T05:09:31.552Z,98.04
2018-10-02T05:10:42.667Z,98.03
2018-10-02T05:11:49.177Z,97.90
2018-10-02T05:12:55.000Z,97.87
2018-10-02T05:14:00.317Z,97.90
2018-10-02T05:15:05.654Z,97.82
2018-10-02T05:16:10.387Z,97.71
2018-10-02T05:17:15.190Z,97.71
2018-10-02T05:18:21.787Z,97.74
2018-10-02T05:19:26.305Z,97.62
2018-10-02T05:20:31.565Z,97.58
2018-10-02T05:21:36.516Z,97.54
2018-10-02T05:22:41.882Z,97.71
2018-10-02T05:23:47.222Z,97.44
2018-10-02T05:24:53.221Z,97.28
2018-10-02T05:25:59.112Z,97.01
2018-10-02T05:27:05.558Z,97.26
2018-10-02T05:28:10.204Z,97.12
2018-10-02T05:29:15.200Z,96.89
2018-10-02T05:30:21.221Z,96.63
2018-10-02T05:31:26.441Z,96.39
2018-10-02T05:46:23.703Z,95.91
2018-10-02T05:47:33.382Z,95.90
2018-10-02T05:48:39.388Z,95.94
2018-10-02T05:49:43.843Z,95.65
2018-10-02T05:50:48.789Z,95.81
2018-10-02T05:51:53.694Z,95.62
2018-10-02T05:53:00.713Z,95.65
2018-10-02T05:54:07.240Z,95.50
2018-10-02T05:55:12.497Z,95.43
2018-10-02T05:56:17.680Z,95.35
2018-10-02T05:57:22.419Z,95.59
2018-10-02T05:58:29.384Z,95.43
2018-10-02T05:59:34.401Z,95.51
2018-10-02T06:00:38.873Z,94.85
2018-10-02T06:01:44.304Z,95.19
2018-10-02T06:02:48.755Z,95.09
2018-10-02T06:03:55.229Z,94.98
2018-10-02T06:05:00.943Z,94.96
2018-10-02T06:06:05.328Z,94.70
2018-10-02T06:07:12.635Z,94.67
2018-10-02T06:08:18.069Z,94.71
2018-10-02T06:09:27.330Z,94.58
2018-10-02T06:10:31.785Z,94.79
2018-10-02T06:11:37.709Z,94.81
2018-10-02T06:12:44.345Z,94.60
2018-10-02T06:13:49.716Z,94.39
2018-10-02T06:14:56.208Z,94.14
2018-10-02T06:16:01.293Z,93.92
2018-10-02T06:17:07.685Z,93.85
2018-10-02T06:18:13.694Z,94.05
2018-10-02T06:19:18.352Z,93.77
2018-10-02T06:20:27.087Z,93.41
2018-10-02T06:21:31.519Z,93.75
2018-10-02T06:22:36.388Z,93.45
2018-10-02T06:23:40.768Z,93.45
2018-10-02T06:24:46.365Z,93.35
2018-10-02T06:25:51.839Z,93.23
2018-10-02T06:26:57.117Z,93.22
2018-10-02T06:28:02.115Z,93.28
2018-10-02T06:29:10.109Z,93.05
2018-10-02T06:30:16.190Z,93.14
2018-10-02T06:31:21.909Z,92.93
2018-10-02T06:32:27.952Z,92.88
2018-10-02T06:33:32.336Z,92.67
2018-10-02T06:34:36.930Z,92.64
2018-10-02T06:35:41.948Z,92.55
2018-10-02T06:36:46.507Z,92.62
2018-10-02T06:37:52.114Z,92.37
2018-10-02T06:38:58.350Z,92.20
2018-10-02T06:40:03.760Z,92.16
2018-10-02T06:41:09.813Z,91.95
2018-10-02T06:42:14.962Z,91.85
2018-10-02T06:43:19.644Z,91.87
2018-10-02T06:44:25.592Z,91.80
2018-10-02T06:45:30.512Z,91.87
2018-10-02T06:46:36.131Z,91.74
2018-10-02T06:47:42.505Z,91.87
2018-10-02T06:48:46.926Z,91.72
2018-10-02T06:49:51.352Z,91.55
2018-10-02T06:50:56.533Z,91.81
2018-10-02T06:52:02.332Z,91.72
2018-10-02T06:53:07.125Z,91.88
2018-10-02T06:54:14.536Z,91.97
2018-10-02T06:55:21.196Z,92.33
2018-10-02T06:56:26.934Z,92.33
2018-10-02T06:57:32.004Z,92.33
2018-10-02T06:58:39.473Z,92.23
2018-10-02T06:59:45.838Z,92.52
2018-10-02T07:00:55.302Z,92.45
2018-10-02T07:02:00.633Z,92.59
2018-10-02T07:03:06.048Z,92.51
2018-10-02T07:04:12.540Z,92.66
2018-10-02T07:05:20.918Z,92.61
2018-10-02T07:06:26.257Z,92.87
2018-10-02T07:07:31.695Z,92.58
2018-10-02T07:08:36.133Z,92.96
2018-10-02T07:09:43.376Z,93.08
2018-10-02T07:10:48.825Z,92.92
2018-10-02T07:11:53.302Z,92.70
2018-10-02T07:13:00.424Z,93.01
2018-10-02T07:14:04.994Z,93.19
2018-10-02T07:15:11.037Z,93.29
2018-10-02T07:16:16.181Z,93.34
2018-10-02T07:17:22.444Z,93.33
2018-10-02T07:18:30.055Z,93.37
2018-10-02T07:19:55.224Z,93.39
2018-10-02T07:21:04.455Z,93.28
2018-10-02T07:22:10.567Z,93.28
2018-10-02T07:23:14.988Z,93.50
2018-10-02T07:24:20.070Z,93.23
2018-10-02T07:25:29.556Z,93.25
2018-10-02T07:26:34.600Z,93.09
2018-10-02T07:27:41.916Z,93.40
2018-10-02T07:28:47.593Z,93.19
2018-10-02T07:29:53.650Z,93.23
2018-10-02T07:31:04.438Z,93.28
2018-10-02T07:32:10.391Z,92.85
2018-10-02T07:33:17.243Z,93.15
2018-10-02T07:34:22.442Z,92.92
2018-10-02T07:35:27.926Z,93.29
2018-10-02T07:36:34.348Z,93.15
2018-10-02T07:37:41.315Z,93.08
2018-10-02T07:38:47.313Z,93.12
2018-10-02T07:39:54.468Z,93.56
2018-10-02T07:41:06.322Z,93.21
2018-10-02T07:42:13.826Z,93.22
2018-10-02T07:43:23.265Z,93.25
2018-10-02T07:44:27.730Z,93.10
2018-10-02T07:46:47.447Z,93.26
2018-10-02T07:47:55.244Z,93.15
2018-10-02T07:49:07.626Z,93.37
2018-10-02T07:50:16.569Z,93.34
2018-10-02T07:51:24.943Z,93.39
2018-10-02T07:52:31.253Z,93.36
2018-10-02T07:53:37.099Z,93.50
2018-10-02T07:54:46.655Z,93.66
2018-10-02T07:55:52.615Z,93.79
2018-10-02T07:58:22.611Z,93.83
2018-10-02T07:59:27.986Z,93.99
2018-10-02T08:00:33.572Z,94.14
2018-10-02T08:01:39.785Z,94.28
2018-10-02T08:02:45.234Z,94.41
2018-10-02T08:04:21.095Z,94.35
2018-10-02T08:05:29.557Z,94.26
2018-10-02T10:45:33.669Z,100.00
2018-10-02T10:46:40.354Z,100.00
2018-10-02T10:47:46.222Z,100.00
2018-10-02T10:50:03.243Z,100.00
2018-10-02T10:51:09.638Z,100.00
2018-10-02T10:52:19.252Z,100.00
2018-10-02T10:53:26.360Z,100.00
2018-10-02T10:54:32.646Z,100.00
2018-10-02T10:55:39.976Z,100.00
2018-10-02T10:56:45.248Z,100.00
2018-10-02T10:57:54.541Z,100.00
2018-10-02T10:59:00.561Z,100.00
2018-10-02T11:00:05.129Z,100.00
2018-10-02T11:01:10.513Z,100.00
2018-10-02T11:02:46.440Z,100.00
2018-10-02T11:03:56.765Z,100.00
2018-10-02T11:05:03.912Z,100.00
2018-10-02T11:06:09.153Z,100.00
2018-10-02T11:07:13.588Z,100.00
2018-10-02T11:08:19.640Z,100.00
2018-10-02T11:09:28.123Z,100.00
2018-10-02T11:10:36.766Z,100.00
2018-10-02T11:11:47.587Z,100.00
2018-10-02T11:12:52.022Z,100.00
2018-10-02T11:13:57.583Z,100.00
2018-10-02T11:15:04.719Z,100.00
2018-10-02T11:16:11.289Z,100.00
2018-10-02T11:17:17.461Z,100.00
2018-10-02T11:18:23.372Z,100.00
2018-10-02T11:19:29.095Z,100.00
2018-10-02T11:20:41.195Z,100.00
2018-10-02T11:21:47.264Z,100.00
2018-10-02T11:22:53.509Z,100.00
2018-10-02T11:23:59.060Z,100.00
2018-10-02T11:25:05.601Z,100.00
2018-10-02T11:26:15.822Z,100.00
2018-10-02T11:27:22.299Z,100.00
2018-10-02T11:28:30.582Z,100.00
2018-10-02T11:29:36.927Z,100.00
2018-10-02T11:30:42.704Z,100.00
2018-10-02T11:31:49.332Z,100.00
2018-10-02T11:32:53.847Z,100.00
2018-10-02T11:34:00.835Z,100.00
2018-10-02T11:35:06.031Z,100.00
2018-10-02T11:36:11.908Z,100.00
2018-10-02T11:37:19.020Z,100.00
2018-10-02T11:39:37.898Z,100.00
2018-10-02T11:40:45.672Z,100.00
2018-10-02T11:41:53.275Z,100.00
2018-10-02T11:42:58.747Z,100.00
2018-10-02T11:44:05.423Z,100.00
2018-10-02T11:45:10.758Z,100.00
2018-10-02T11:47:33.989Z,100.00
2018-10-02T11:48:38.433Z,100.00
2018-10-02T11:49:47.553Z,100.00
2018-10-02T11:50:53.488Z,100.00
2018-10-02T11:51:59.435Z,100.00
2018-10-02T11:53:07.275Z,100.00
2018-10-02T11:54:11.802Z,100.00
2018-10-02T11:55:19.481Z,100.00
2018-10-02T11:56:26.801Z,100.00
2018-10-02T11:57:32.926Z,100.00
2018-10-02T11:58:37.832Z,100.00
2018-10-02T11:59:45.201Z,100.00
2018-10-02T12:00:53.986Z,100.00
2018-10-02T12:02:03.553Z,100.00
2018-10-02T12:03:10.606Z,100.00
2018-10-02T12:04:21.688Z,100.00
2018-10-02T12:05:27.328Z,100.00
2018-10-02T12:06:44.756Z,100.00
2018-10-02T12:07:52.090Z,100.00
2018-10-02T12:09:01.452Z,100.00
2018-10-02T12:10:08.544Z,100.00
2018-10-02T12:12:36.184Z,100.00
2018-10-02T12:13:44.389Z,100.00
2018-10-02T12:14:49.779Z,100.00
2018-10-02T12:15:59.517Z,100.00
2018-10-02T12:17:06.024Z,100.00
2018-10-02T12:18:12.949Z,100.00
2018-10-02T12:19:19.470Z,100.00
2018-10-02T12:20:25.584Z,100.00
2018-10-02T12:21:32.823Z,100.00
2018-10-02T12:22:38.016Z,100.00
2018-10-02T12:23:43.533Z,100.00
2018-10-02T12:24:49.515Z,100.00
2018-10-02T12:25:55.709Z,100.00
2018-10-02T12:27:04.541Z,100.00
2018-10-02T12:28:11.654Z,100.00
2018-10-02T12:29:17.787Z,100.00
2018-10-02T12:30:22.598Z,100.00
2018-10-02T12:31:27.383Z,100.00
2018-10-02T12:32:32.131Z,100.00
2018-10-02T12:33:41.772Z,100.00
2018-10-02T12:34:47.473Z,100.00
2018-10-02T12:35:53.182Z,100.00
2018-10-02T12:36:59.592Z,100.00
2018-10-02T12:38:05.447Z,100.00
2018-10-02T12:39:10.927Z,100.00
2018-10-02T12:40:17.587Z,100.00
2018-10-02T12:41:25.616Z,100.00
2018-10-02T12:43:45.824Z,100.00
2018-10-02T12:44:52.080Z,100.00
2018-10-02T12:45:57.828Z,100.00
2018-10-02T12:47:04.805Z,100.00
2018-10-02T12:48:13.556Z,100.00
2018-10-02T12:49:22.452Z,100.00
2018-10-02T12:50:29.845Z,100.00
2018-10-02T12:51:38.857Z,100.00
2018-10-02T12:52:49.148Z,100.00
2018-10-02T12:53:56.514Z,100.00
2018-10-02T12:55:01.676Z,100.00
2018-10-02T12:56:06.973Z,100.00
2018-10-02T12:57:12.389Z,100.00
2018-10-02T12:58:18.152Z,100.00
2018-10-02T12:59:37.451Z,100.00
2018-10-02T13:00:43.495Z,100.00
2018-10-02T13:01:48.841Z,100.00
2018-10-02T13:02:54.166Z,100.00
2018-10-02T13:04:01.265Z,100.00
2018-10-02T13:05:12.370Z,100.00
2018-10-02T13:06:17.722Z,100.00
2018-10-02T13:07:24.708Z,100.00
2018-10-02T13:08:29.249Z,100.00
2018-10-02T13:09:36.040Z,100.00
2018-10-02T13:10:44.687Z,100.00
2018-10-02T13:11:49.636Z,100.00
2018-10-02T13:12:58.799Z,100.00
2018-10-02T13:14:07.750Z,100.00
2018-10-02T13:15:14.044Z,100.00
2018-10-02T13:16:18.492Z,100.00
2018-10-02T13:17:23.912Z,100.00
2018-10-02T13:18:30.697Z,100.00
2018-10-02T13:19:42.901Z,100.00
2018-10-02T13:20:51.843Z,100.00
2018-10-02T13:21:56.521Z,100.00
2018-10-02T13:23:01.524Z,100.00
2018-10-02T13:24:07.280Z,100.00
2018-10-02T13:25:15.107Z,100.00
2018-10-02T13:26:24.285Z,100.00
2018-10-02T13:27:29.901Z,100.00
2018-10-02T13:28:36.269Z,100.00
2018-10-02T13:29:45.775Z,100.00
2018-10-02T13:30:53.070Z,100.00
2018-10-02T13:32:00.729Z,100.00
2018-10-02T13:33:11.928Z,100.00
2018-10-02T13:34:19.689Z,100.00
2018-10-02T13:35:31.036Z,100.00
2018-10-02T13:36:37.257Z,100.00
2018-10-02T13:37:44.840Z,100.00
2018-10-02T13:38:55.470Z,100.00
2018-10-02T13:40:01.803Z,100.00
2018-10-02T13:41:09.645Z,100.00
2018-10-02T13:42:22.579Z,100.00
2018-10-02T13:43:29.702Z,100.00
2018-10-02T13:44:38.539Z,100.00
2018-10-02T13:45:43.160Z,100.00
2018-10-02T13:46:50.755Z,100.00
2018-10-02T13:47:56.319Z,100.00
2018-10-02T13:49:02.331Z,100.00
2018-10-02T13:50:13.637Z,100.00
2018-10-02T13:51:24.084Z,100.00
2018-10-02T13:52:31.177Z,100.00
2018-10-02T13:53:37.011Z,100.00
2018-10-02T13:54:42.758Z,100.00
2018-10-02T13:55:47.878Z,100.00
2018-10-02T13:57:00.310Z,100.00
2018-10-02T13:58:06.129Z,100.00
2018-10-02T13:59:13.024Z,100.00
2018-10-02T14:00:17.463Z,100.00
2018-10-02T14:01:25.337Z,100.00
2018-10-02T14:02:32.690Z,100.00
2018-10-02T14:03:39.117Z,100.00
2018-10-02T14:04:44.615Z,100.00
2018-10-02T14:05:49.837Z,100.00
2018-10-02T14:06:54.253Z,100.00
2018-10-02T14:07:58.723Z,100.00
2018-10-02T14:09:06.705Z,100.00
2018-10-02T14:10:12.651Z,100.00
2018-10-02T14:11:19.095Z,100.00
2018-10-02T14:12:28.822Z,100.00
2018-10-02T14:13:35.449Z,100.00
2018-10-02T14:14:43.952Z,100.00
2018-10-02T14:15:50.155Z,100.00
2018-10-02T14:16:57.385Z,100.00
2018-10-02T14:18:02.589Z,100.00
2018-10-02T14:19:14.110Z,100.00
2018-10-02T14:20:20.569Z,100.00
2018-10-02T14:21:31.376Z,100.00
2018-10-02T14:22:37.749Z,100.00
2018-10-02T14:23:43.767Z,100.00
2018-10-02T14:24:53.352Z,100.00
2018-10-02T14:26:02.415Z,100.00
2018-10-02T14:28:22.581Z,100.00
2018-10-02T14:29:29.762Z,100.00
2018-10-02T14:30:35.282Z,100.00
2018-10-02T14:31:40.533Z,100.00
2018-10-02T14:32:49.606Z,100.00
2018-10-02T14:33:55.320Z,100.00
2018-10-02T14:35:02.519Z,100.00
2018-10-02T14:36:09.384Z,100.00
2018-10-02T14:37:15.229Z,100.00
2018-10-02T14:38:20.647Z,100.00
2018-10-02T14:39:28.225Z,100.00
2018-10-02T14:40:50.082Z,100.00
2018-10-02T14:42:02.159Z,100.00
2018-10-02T14:43:09.709Z,100.00
2018-10-02T14:44:16.576Z,100.00
2018-10-02T14:45:23.079Z,100.00
2018-10-02T14:47:14.269Z,100.00
2018-10-02T14:48:24.117Z,100.00
2018-10-02T14:49:32.609Z,100.00
2018-10-02T14:50:40.990Z,100.00
2018-10-02T14:51:47.385Z,100.00
2018-10-02T14:52:51.959Z,100.00
2018-10-02T14:54:00.726Z,100.00
2018-10-02T14:55:08.059Z,100.00
2018-10-02T14:56:13.503Z,100.00
2018-10-02T14:57:19.296Z,100.00
2018-10-02T14:58:25.736Z,100.00
2018-10-02T14:59:33.970Z,100.00
2018-10-02T15:00:41.636Z,100.00
2018-10-02T15:01:51.322Z,100.00
2018-10-02T15:02:58.548Z,100.00
2018-10-02T15:04:13.824Z,100.00
2018-10-02T15:05:21.719Z,100.00
2018-10-02T15:06:29.437Z,100.00
2018-10-02T15:07:37.220Z,100.00
2018-10-02T15:08:46.746Z,100.00
2018-10-02T15:09:51.466Z,100.00
2018-10-02T15:10:56.626Z,100.00
2018-10-02T15:12:04.876Z,100.00
2018-10-02T15:13:12.036Z,100.00
2018-10-02T15:14:17.829Z,100.00
2018-10-02T15:15:23.315Z,100.00
2018-10-02T15:16:29.509Z,100.00
2018-10-02T15:17:39.666Z,100.00
2018-10-02T15:18:45.407Z,100.00
2018-10-02T15:19:54.246Z,100.00
2018-10-02T15:21:01.461Z,100.00
2018-10-02T15:22:07.375Z,100.00
2018-10-02T15:23:18.563Z,100.00
2018-10-02T15:24:24.281Z,100.00
2018-10-02T15:25:32.090Z,100.00
2018-10-02T15:26:40.316Z,100.00
2018-10-02T15:27:52.336Z,100.00
2018-10-02T15:28:57.552Z,100.00
2018-10-02T15:30:33.312Z,100.00
2018-10-02T15:31:37.854Z,100.00
2018-10-02T15:32:44.006Z,100.00
2018-10-02T15:33:49.824Z,100.00
2018-10-02T15:34:55.442Z,100.00
2018-10-02T15:36:00.853Z,100.00
2018-10-02T15:37:07.749Z,100.00
2018-10-02T15:38:13.886Z,100.00
2018-10-02T15:39:18.825Z,100.00
2018-10-02T15:40:23.275Z,100.00
2018-10-02T15:41:31.384Z,100.00
2018-10-02T15:42:39.606Z,100.00
2018-10-02T15:43:45.019Z,100.00
2018-10-02T15:44:53.186Z,100.00
2018-10-02T15:45:58.520Z,100.00
2018-10-02T15:47:07.848Z,100.00
2018-10-02T15:48:13.403Z,100.00
2018-10-02T15:49:22.228Z,100.00
2018-10-02T15:50:27.623Z,100.00
2018-10-02T15:51:37.323Z,100.00
2018-10-02T15:52:44.851Z,100.00
2018-10-02T15:53:52.334Z,100.00
2018-10-02T15:54:57.950Z,100.00
2018-10-02T15:56:05.764Z,100.00
2018-10-02T15:57:15.067Z,100.00
2018-10-02T15:58:20.454Z,100.00
2018-10-02T15:59:25.212Z,100.00
2018-10-02T16:00:31.876Z,100.00
2018-10-02T16:01:39.835Z,100.00
2018-10-02T16:02:46.023Z,100.00
2018-10-02T16:03:50.641Z,100.00
2018-10-02T16:05:00.177Z,100.00
2018-10-02T16:06:08.945Z,100.00
2018-10-02T16:07:17.513Z,100.00
2018-10-02T16:08:22.863Z,100.00
2018-10-02T16:09:29.628Z,100.00
2018-10-02T16:10:41.243Z,100.00
2018-10-02T16:11:47.813Z,100.00
2018-10-02T16:12:53.703Z,100.00
2018-10-02T16:13:58.247Z,100.00
2018-10-02T16:15:03.591Z,100.00
2018-10-02T16:16:11.793Z,100.00
2018-10-02T16:17:19.320Z,100.00
2018-10-02T16:18:27.075Z,100.00
2018-10-02T16:19:31.497Z,100.00
2018-10-02T16:21:52.544Z,100.00
2018-10-02T16:22:59.374Z,100.00
2018-10-02T16:24:03.892Z,100.00
2018-10-02T16:25:12.051Z,100.00
2018-10-02T16:26:18.799Z,100.00
2018-10-02T16:27:27.047Z,100.00
2018-10-02T16:28:32.737Z,100.00
2018-10-02T16:29:40.314Z,100.00
2018-10-02T16:30:47.071Z,100.00
2018-10-02T16:31:52.508Z,100.00
2018-10-02T16:45:43.580Z,100.00
2018-10-02T16:48:03.535Z,100.00
2018-10-02T16:49:11.403Z,100.00
2018-10-02T16:50:16.688Z,100.00
2018-10-02T16:51:22.325Z,100.00
2018-10-02T16:52:27.865Z,100.00
2018-10-02T16:53:33.697Z,100.00
2018-10-02T16:54:42.831Z,100.00
2018-10-02T16:55:49.867Z,100.00
2018-10-02T16:56:57.580Z,100.00
2018-10-02T16:58:03.228Z,100.00
2018-10-02T16:59:09.890Z,100.00
2018-10-02T17:00:17.128Z,100.00
2018-10-02T17:01:22.507Z,100.00
2018-10-02T17:02:29.031Z,100.00
2018-10-02T17:03:38.664Z,100.00
2018-10-02T17:04:46.311Z,100.00
2018-10-02T17:05:52.621Z,100.00
2018-10-02T17:07:00.932Z,100.00
2018-10-02T17:08:05.331Z,100.00
2018-10-02T17:09:13.850Z,100.00
2018-10-02T17:10:19.009Z,100.00
2018-10-02T17:11:27.687Z,100.00
2018-10-02T17:12:34.824Z,100.00
2018-10-02T17:13:42.196Z,100.00
2018-10-02T17:14:54.323Z,100.00
2018-10-02T17:16:07.090Z,100.00
2018-10-02T17:17:21.386Z,100.00
2018-10-02T17:18:30.156Z,100.00
2018-10-02T17:19:35.575Z,100.00
2018-10-02T17:20:42.488Z,100.00
2018-10-02T17:21:48.835Z,100.00